Time,TemperatureF,DewpointF,PressureIn,WindDirection,WindDirectionDegrees,WindSpeedMPH,WindSpeedGustMPH,Humidity,HourlyPrecipIn,Conditions,Clouds,dailyrainin,SolarRadiationWatts/m^2,SoftwareType,DateUTC
2013-03-06 00:01:00,38.0,27.0,-100.00,North,3,0.0,0.0,65,0.00,,,0.00,0.000000,,2013-03-06 07:01:00,
2013-03-06 00:11:00,38.0,27.0,-100.00,North,3,0.0,0.0,65,0.00,,,0.00,0.000000,,2013-03-06 07:11:00,
2013-03-06 00:22:00,38.0,27.0,-100.00,North,3,0.0,0.0,65,0.00,,,0.00,0.000000,,2013-03-06 07:22:00,
2013-03-06 00:32:00,38.0,27.0,-100.00,North,3,0.0,0.0,65,0.00,,,0.00,0.000000,,2013-03-06 07:32:00,
2013-03-06 00:42:00,38.0,22.0,-100.00,North,349,0.0,2.0,52,0.00,,,0.00,0.000000,,2013-03-06 07:42:00,
2013-03-06 01:01:00,38.0,22.0,-100.00,North,349,0.0,2.0,52,0.00,,,0.00,0.000000,,2013-03-06 08:01:00,
2013-03-06 01:11:00,38.0,22.0,-100.00,North,349,0.0,2.0,52,0.00,,,0.00,0.000000,,2013-03-06 08:11:00,
2013-03-06 01:21:00,38.0,22.0,-100.00,North,349,0.0,2.0,52,0.00,,,0.00,0.000000,,2013-03-06 08:21:00,
2013-03-06 01:32:00,38.0,22.0,-100.00,North,349,0.0,2.0,52,0.00,,,0.00,0.000000,,2013-03-06 08:32:00,
2013-03-06 01:42:00,39.0,19.0,-100.00,NNE,14,1.0,3.0,45,0.00,,,0.00,0.000000,,2013-03-06 08:42:00,
2013-03-06 02:01:00,39.0,19.0,-100.00,NNE,14,1.0,3.0,45,0.00,,,0.00,0.000000,,2013-03-06 09:01:00,
2013-03-06 02:12:00,39.0,19.0,-100.00,NNE,14,1.0,3.0,45,0.00,,,0.00,0.000000,,2013-03-06 09:12:00,
2013-03-06 02:21:00,39.0,19.0,-100.00,NNE,14,1.0,3.0,45,0.00,,,0.00,0.000000,,2013-03-06 09:21:00,
2013-03-06 02:32:00,39.0,19.0,-100.00,NNE,14,1.0,3.0,45,0.00,,,0.00,0.000000,,2013-03-06 09:32:00,
2013-03-06 02:42:00,38.0,15.0,-100.00,NNE,32,0.0,1.0,39,0.00,,,0.00,0.000000,,2013-03-06 09:42:00,
2013-03-06 03:01:00,38.0,15.0,-100.00,NNE,32,0.0,1.0,39,0.00,,,0.00,0.000000,,2013-03-06 10:01:00,
2013-03-06 03:11:00,38.0,15.0,-100.00,NNE,32,0.0,1.0,39,0.00,,,0.00,0.000000,,2013-03-06 10:11:00,
2013-03-06 03:22:00,38.0,15.0,-100.00,NNE,32,0.0,1.0,39,0.00,,,0.00,0.000000,,2013-03-06 10:22:00,
2013-03-06 03:32:00,38.0,15.0,-100.00,NNE,32,0.0,1.0,39,0.00,,,0.00,0.000000,,2013-03-06 10:32:00,
2013-03-06 03:42:00,38.0,19.0,-100.00,East,99,2.0,3.0,45,0.00,,,0.00,0.000000,,2013-03-06 10:42:00,
2013-03-06 04:02:00,38.0,19.0,-100.00,East,99,2.0,3.0,45,0.00,,,0.00,0.000000,,2013-03-06 11:02:00,
2013-03-06 04:11:00,38.0,19.0,-100.00,East,99,2.0,3.0,45,0.00,,,0.00,0.000000,,2013-03-06 11:11:00,
2013-03-06 04:22:00,38.0,19.0,-100.00,East,99,2.0,3.0,45,0.00,,,0.00,0.000000,,2013-03-06 11:22:00,
2013-03-06 04:32:00,38.0,19.0,-100.00,East,99,2.0,3.0,45,0.00,,,0.00,0.000000,,2013-03-06 11:32:00,
2013-03-06 04:42:00,38.0,21.0,-100.00,ENE,68,0.0,3.0,50,0.00,,,0.00,0.000000,,2013-03-06 11:42:00,
2013-03-06 05:02:00,38.0,21.0,-100.00,ENE,68,0.0,3.0,50,0.00,,,0.00,0.000000,,2013-03-06 12:02:00,
2013-03-06 05:11:00,38.0,21.0,-100.00,ENE,68,0.0,3.0,50,0.00,,,0.00,0.000000,,2013-03-06 12:11:00,
2013-03-06 05:22:00,38.0,21.0,-100.00,ENE,68,0.0,3.0,50,0.00,,,0.00,0.000000,,2013-03-06 12:22:00,
2013-03-06 05:33:00,38.0,21.0,-100.00,ENE,68,0.0,3.0,50,0.00,,,0.00,0.000000,,2013-03-06 12:33:00,
2013-03-06 05:42:00,39.0,20.0,-100.00,NNW,345,1.0,2.0,46,0.00,,,0.00,0.000000,,2013-03-06 12:42:00,
2013-03-06 06:02:00,39.0,20.0,-100.00,NNW,345,1.0,2.0,46,0.00,,,0.00,0.000000,,2013-03-06 13:02:00,
2013-03-06 06:12:00,39.0,20.0,-100.00,NNW,345,1.0,2.0,46,0.00,,,0.00,0.000000,,2013-03-06 13:12:00,
2013-03-06 06:22:00,39.0,20.0,-100.00,NNW,345,1.0,2.0,46,0.00,,,0.00,0.000000,,2013-03-06 13:22:00,
2013-03-06 06:32:00,39.0,20.0,-100.00,NNW,345,1.0,2.0,46,0.00,,,0.00,0.000000,,2013-03-06 13:32:00,
2013-03-06 06:42:00,39.0,19.0,-100.00,North,351,1.0,2.0,45,0.00,,,0.00,1.000000,,2013-03-06 13:42:00,
2013-03-06 07:01:00,39.0,19.0,-100.00,North,351,1.0,2.0,45,0.00,,,0.00,1.000000,,2013-03-06 14:01:00,
2013-03-06 07:11:00,39.0,19.0,-100.00,North,351,1.0,2.0,45,0.00,,,0.00,1.000000,,2013-03-06 14:11:00,
2013-03-06 07:22:00,39.0,19.0,-100.00,North,351,1.0,2.0,45,0.00,,,0.00,1.000000,,2013-03-06 14:22:00,
2013-03-06 07:32:00,39.0,19.0,-100.00,North,351,1.0,2.0,45,0.00,,,0.00,1.000000,,2013-03-06 14:32:00,
2013-03-06 07:42:00,41.0,21.0,-100.00,North,357,1.0,4.0,44,0.00,,,0.00,42.000000,,2013-03-06 14:42:00,
2013-03-06 08:02:00,41.0,21.0,-100.00,North,357,1.0,4.0,44,0.00,,,0.00,42.000000,,2013-03-06 15:02:00,
2013-03-06 08:11:00,41.0,21.0,-100.00,North,357,1.0,4.0,44,0.00,,,0.00,42.000000,,2013-03-06 15:11:00,
2013-03-06 08:21:00,41.0,21.0,-100.00,North,357,1.0,4.0,44,0.00,,,0.00,42.000000,,2013-03-06 15:21:00,
2013-03-06 08:32:00,41.0,21.0,-100.00,North,357,1.0,4.0,44,0.00,,,0.00,42.000000,,2013-03-06 15:32:00,
2013-03-06 08:42:00,48.0,22.0,-100.00,North,358,2.0,6.0,35,0.00,,,0.00,162.000000,,2013-03-06 15:42:00,
2013-03-06 09:02:00,48.0,22.0,-100.00,North,358,2.0,6.0,35,0.00,,,0.00,162.000000,,2013-03-06 16:02:00,
2013-03-06 09:11:00,48.0,22.0,-100.00,North,358,2.0,6.0,35,0.00,,,0.00,162.000000,,2013-03-06 16:11:00,
2013-03-06 09:21:00,48.0,22.0,-100.00,North,358,2.0,6.0,35,0.00,,,0.00,162.000000,,2013-03-06 16:21:00,
2013-03-06 09:32:00,48.0,22.0,-100.00,North,358,2.0,6.0,35,0.00,,,0.00,162.000000,,2013-03-06 16:32:00,
2013-03-06 09:42:00,55.0,23.0,-100.00,WNW,297,2.0,5.0,28,0.00,,,0.00,419.000000,,2013-03-06 16:42:00,
2013-03-06 10:01:00,55.0,23.0,-100.00,WNW,297,2.0,5.0,28,0.00,,,0.00,419.000000,,2013-03-06 17:01:00,
2013-03-06 10:11:00,55.0,23.0,-100.00,WNW,297,2.0,5.0,28,0.00,,,0.00,419.000000,,2013-03-06 17:11:00,
2013-03-06 10:22:00,55.0,23.0,-100.00,WNW,297,2.0,5.0,28,0.00,,,0.00,419.000000,,2013-03-06 17:22:00,
2013-03-06 10:32:00,55.0,23.0,-100.00,WNW,297,2.0,5.0,28,0.00,,,0.00,419.000000,,2013-03-06 17:32:00,
2013-03-06 10:42:00,60.0,23.0,-100.00,SSW,202,4.0,8.0,24,0.00,,,0.00,505.000000,,2013-03-06 17:42:00,
2013-03-06 11:02:00,60.0,23.0,-100.00,SSW,202,4.0,8.0,24,0.00,,,0.00,505.000000,,2013-03-06 18:02:00,
2013-03-06 11:28:00,60.0,23.0,-100.00,SSW,202,4.0,8.0,24,0.00,,,0.00,505.000000,,2013-03-06 18:28:00,
2013-03-06 11:42:00,62.0,25.0,-100.00,SSE,154,5.0,11.0,24,0.00,,,0.00,454.000000,,2013-03-06 18:42:00,
2013-03-06 12:02:00,62.0,25.0,-100.00,SSE,154,5.0,11.0,24,0.00,,,0.00,454.000000,,2013-03-06 19:02:00,
2013-03-06 12:11:00,62.0,25.0,-100.00,SSE,154,5.0,11.0,24,0.00,,,0.00,454.000000,,2013-03-06 19:11:00,
2013-03-06 12:22:00,62.0,25.0,-100.00,SSE,154,5.0,11.0,24,0.00,,,0.00,454.000000,,2013-03-06 19:22:00,
2013-03-06 12:32:00,62.0,25.0,-100.00,SSE,154,5.0,11.0,24,0.00,,,0.00,454.000000,,2013-03-06 19:32:00,
2013-03-06 12:42:00,66.0,26.0,-100.00,SSE,153,5.0,9.0,22,0.00,,,0.00,747.000000,,2013-03-06 19:42:00,
2013-03-06 13:12:00,66.0,26.0,-100.00,SSE,153,5.0,9.0,22,0.00,,,0.00,747.000000,,2013-03-06 20:12:00,
2013-03-06 13:22:00,66.0,26.0,-100.00,SSE,153,5.0,9.0,22,0.00,,,0.00,747.000000,,2013-03-06 20:22:00,
2013-03-06 13:32:00,66.0,26.0,-100.00,SSE,153,5.0,9.0,22,0.00,,,0.00,747.000000,,2013-03-06 20:32:00,
2013-03-06 13:42:00,68.0,25.0,-100.00,South,177,5.0,12.0,20,0.00,,,0.00,727.000000,,2013-03-06 20:42:00,
2013-03-06 14:02:00,68.0,25.0,-100.00,South,177,5.0,12.0,20,0.00,,,0.00,727.000000,,2013-03-06 21:02:00,
2013-03-06 14:12:00,68.0,25.0,-100.00,South,177,5.0,12.0,20,0.00,,,0.00,727.000000,,2013-03-06 21:12:00,
2013-03-06 14:22:00,68.0,25.0,-100.00,South,177,5.0,12.0,20,0.00,,,0.00,727.000000,,2013-03-06 21:22:00,
2013-03-06 14:32:00,68.0,25.0,-100.00,South,177,5.0,12.0,20,0.00,,,0.00,727.000000,,2013-03-06 21:32:00,
2013-03-06 14:42:00,70.0,25.0,-100.00,South,177,6.0,12.0,18,0.00,,,0.00,678.000000,,2013-03-06 21:42:00,
2013-03-06 15:02:00,70.0,25.0,-100.00,South,177,6.0,12.0,18,0.00,,,0.00,678.000000,,2013-03-06 22:02:00,
2013-03-06 15:11:00,70.0,25.0,-100.00,South,177,6.0,12.0,18,0.00,,,0.00,678.000000,,2013-03-06 22:11:00,
2013-03-06 15:22:00,70.0,25.0,-100.00,South,177,6.0,12.0,18,0.00,,,0.00,678.000000,,2013-03-06 22:22:00,
2013-03-06 15:32:00,70.0,25.0,-100.00,South,177,6.0,12.0,18,0.00,,,0.00,678.000000,,2013-03-06 22:32:00,
2013-03-06 15:42:00,69.0,24.0,-100.00,SSE,158,5.0,11.0,18,0.00,,,0.00,551.000000,,2013-03-06 22:42:00,
2013-03-06 16:01:00,69.0,24.0,-100.00,SSE,158,5.0,11.0,18,0.00,,,0.00,551.000000,,2013-03-06 23:01:00,
2013-03-06 16:11:00,69.0,24.0,-100.00,SSE,158,5.0,11.0,18,0.00,,,0.00,551.000000,,2013-03-06 23:11:00,
2013-03-06 16:21:00,69.0,24.0,-100.00,SSE,158,5.0,11.0,18,0.00,,,0.00,551.000000,,2013-03-06 23:21:00,
2013-03-06 16:32:00,69.0,24.0,-100.00,SSE,158,5.0,11.0,18,0.00,,,0.00,551.000000,,2013-03-06 23:32:00,
2013-03-06 16:42:00,69.0,24.0,-100.00,SSE,166,4.0,12.0,18,0.00,,,0.00,364.000000,,2013-03-06 23:42:00,
2013-03-06 17:02:00,69.0,24.0,-100.00,SSE,166,4.0,12.0,18,0.00,,,0.00,364.000000,,2013-03-07 00:02:00,
2013-03-06 17:11:00,69.0,24.0,-100.00,SSE,166,4.0,12.0,18,0.00,,,0.00,364.000000,,2013-03-07 00:11:00,
2013-03-06 17:21:00,69.0,24.0,-100.00,SSE,166,4.0,12.0,18,0.00,,,0.00,364.000000,,2013-03-07 00:21:00,
2013-03-06 17:32:00,69.0,24.0,-100.00,SSE,166,4.0,12.0,18,0.00,,,0.00,364.000000,,2013-03-07 00:32:00,
2013-03-06 17:42:00,65.0,20.0,-100.00,SE,137,5.0,11.0,18,0.00,,,0.00,61.000000,,2013-03-07 00:42:00,
2013-03-06 18:01:00,65.0,20.0,-100.00,SE,137,5.0,11.0,18,0.00,,,0.00,61.000000,,2013-03-07 01:01:00,
2013-03-06 18:11:00,65.0,20.0,-100.00,SE,137,5.0,11.0,18,0.00,,,0.00,61.000000,,2013-03-07 01:11:00,
2013-03-06 18:21:00,65.0,20.0,-100.00,SE,137,5.0,11.0,18,0.00,,,0.00,61.000000,,2013-03-07 01:21:00,
2013-03-06 18:32:00,65.0,20.0,-100.00,SE,137,5.0,11.0,18,0.00,,,0.00,61.000000,,2013-03-07 01:32:00,
2013-03-06 19:01:00,60.0,21.0,-100.00,South,173,3.0,9.0,22,0.00,,,0.00,6.000000,,2013-03-07 02:01:00,
2013-03-06 19:11:00,60.0,21.0,-100.00,South,173,3.0,9.0,22,0.00,,,0.00,6.000000,,2013-03-07 02:11:00,
2013-03-06 19:21:00,60.0,21.0,-100.00,South,173,3.0,9.0,22,0.00,,,0.00,6.000000,,2013-03-07 02:21:00,
2013-03-06 19:32:00,60.0,21.0,-100.00,South,173,3.0,9.0,22,0.00,,,0.00,6.000000,,2013-03-07 02:32:00,
2013-03-06 19:41:00,60.0,21.0,-100.00,South,173,3.0,9.0,22,0.00,,,0.00,6.000000,,2013-03-07 02:41:00,
2013-03-06 19:42:00,54.0,22.0,-100.00,SSE,160,1.0,4.0,28,0.00,,,0.00,0.000000,,2013-03-07 02:42:00,
2013-03-06 20:02:00,54.0,22.0,-100.00,SSE,160,1.0,4.0,28,0.00,,,0.00,0.000000,,2013-03-07 03:02:00,
2013-03-06 20:11:00,54.0,22.0,-100.00,SSE,160,1.0,4.0,28,0.00,,,0.00,0.000000,,2013-03-07 03:11:00,
2013-03-06 20:21:00,54.0,22.0,-100.00,SSE,160,1.0,4.0,28,0.00,,,0.00,0.000000,,2013-03-07 03:21:00,
2013-03-06 20:32:00,54.0,22.0,-100.00,SSE,160,1.0,4.0,28,0.00,,,0.00,0.000000,,2013-03-07 03:32:00,
2013-03-06 20:42:00,49.0,23.0,-100.00,ESE,117,1.0,5.0,35,0.00,,,0.00,0.000000,,2013-03-07 03:42:00,
2013-03-06 21:01:00,49.0,23.0,-100.00,ESE,117,1.0,5.0,35,0.00,,,0.00,0.000000,,2013-03-07 04:01:00,
2013-03-06 21:11:00,49.0,23.0,-100.00,ESE,117,1.0,5.0,35,0.00,,,0.00,0.000000,,2013-03-07 04:11:00,
2013-03-06 21:22:00,49.0,23.0,-100.00,ESE,117,1.0,5.0,35,0.00,,,0.00,0.000000,,2013-03-07 04:22:00,
2013-03-06 21:32:00,49.0,23.0,-100.00,ESE,117,1.0,5.0,35,0.00,,,0.00,0.000000,,2013-03-07 04:32:00,
2013-03-06 21:42:00,44.0,25.0,-100.00,SW,221,1.0,2.0,47,0.00,,,0.00,0.000000,,2013-03-07 04:42:00,
2013-03-06 22:02:00,44.0,25.0,-100.00,SW,221,1.0,2.0,47,0.00,,,0.00,0.000000,,2013-03-07 05:02:00,
2013-03-06 22:12:00,44.0,25.0,-100.00,SW,221,1.0,2.0,47,0.00,,,0.00,0.000000,,2013-03-07 05:12:00,
2013-03-06 22:22:00,44.0,25.0,-100.00,SW,221,1.0,2.0,47,0.00,,,0.00,0.000000,,2013-03-07 05:22:00,
2013-03-06 22:32:00,44.0,25.0,-100.00,SW,221,1.0,2.0,47,0.00,,,0.00,0.000000,,2013-03-07 05:32:00,
2013-03-06 22:42:00,40.0,33.0,-100.00,SW,236,0.0,3.0,77,0.00,,,0.00,0.000000,,2013-03-07 05:42:00,
2013-03-06 23:01:00,40.0,33.0,-100.00,SW,236,0.0,3.0,77,0.00,,,0.00,0.000000,,2013-03-07 06:01:00,
2013-03-06 23:11:00,40.0,33.0,-100.00,SW,236,0.0,3.0,77,0.00,,,0.00,0.000000,,2013-03-07 06:11:00,
2013-03-06 23:21:00,40.0,33.0,-100.00,SW,236,0.0,3.0,77,0.00,,,0.00,0.000000,,2013-03-07 06:21:00,
2013-03-06 23:32:00,40.0,33.0,-100.00,SW,236,0.0,3.0,77,0.00,,,0.00,0.000000,,2013-03-07 06:32:00,
2013-03-06 23:42:00,37.0,24.0,-100.00,South,169,0.0,4.0,58,0.00,,,0.00,0.000000,,2013-03-07 06:42:00,